createdAt,value
2017-12-23T00:01:24.530Z,15.80
2017-12-23T00:03:51.990Z,16.80
2017-12-23T00:06:19.451Z,15.47
2017-12-23T00:08:46.906Z,14.07
2017-12-23T00:11:14.383Z,14.13
2017-12-23T00:13:41.830Z,15.37
2017-12-23T00:16:09.297Z,12.63
2017-12-23T00:18:36.747Z,14.80
2017-12-23T00:21:04.981Z,13.73
2017-12-23T00:23:33.201Z,14.90
2017-12-23T00:26:01.434Z,14.60
2017-12-23T00:28:28.894Z,15.13
2017-12-23T00:30:56.362Z,15.80
2017-12-23T00:33:23.830Z,15.77
2017-12-23T00:35:51.287Z,15.37
2017-12-23T00:38:18.738Z,16.83
2017-12-23T00:40:46.207Z,14.40
2017-12-23T00:43:13.675Z,16.03
2017-12-23T00:45:41.899Z,14.57
2017-12-23T00:48:09.371Z,16.37
2017-12-23T00:50:36.843Z,16.00
2017-12-23T00:53:04.286Z,20.50
2017-12-23T00:55:31.761Z,16.10
2017-12-23T00:57:59.229Z,18.53
2017-12-23T01:00:26.691Z,15.37
2017-12-23T01:02:54.150Z,19.03
2017-12-23T01:05:22.377Z,17.10
2017-12-23T01:07:49.838Z,19.10
2017-12-23T01:10:17.315Z,24.23
2017-12-23T01:12:44.770Z,21.87
2017-12-23T01:15:12.236Z,28.20
2017-12-23T01:17:39.697Z,28.00
2017-12-23T01:20:07.162Z,23.63
2017-12-23T01:22:34.622Z,28.10
2017-12-23T01:25:02.097Z,29.27
2017-12-23T01:27:30.323Z,25.10
2017-12-23T01:29:57.785Z,26.17
2017-12-23T01:32:25.249Z,26.07
2017-12-23T01:34:52.702Z,28.47
2017-12-23T01:37:20.157Z,27.13
2017-12-23T01:39:47.639Z,28.60
2017-12-23T01:42:15.108Z,28.43
2017-12-23T01:44:42.563Z,27.33
2017-12-23T01:47:10.028Z,25.77
2017-12-23T01:49:38.246Z,25.80
2017-12-23T01:52:05.707Z,29.73
2017-12-23T01:54:33.188Z,30.93
2017-12-23T01:57:00.643Z,29.00
2017-12-23T01:59:28.099Z,28.73
2017-12-23T02:01:55.582Z,25.83
2017-12-23T02:04:23.814Z,26.73
2017-12-23T02:06:51.267Z,25.00
2017-12-23T02:09:18.730Z,25.70
2017-12-23T02:11:46.199Z,22.60
2017-12-23T02:14:13.654Z,24.97
2017-12-23T02:16:41.130Z,21.57
2017-12-23T02:19:08.602Z,19.30
2017-12-23T02:21:36.827Z,20.50
2017-12-23T02:24:04.300Z,22.50
2017-12-23T02:26:31.754Z,21.77
2017-12-23T02:28:59.210Z,23.90
2017-12-23T02:31:26.674Z,21.63
2017-12-23T02:33:54.126Z,23.20
2017-12-23T02:36:21.592Z,22.10
2017-12-23T02:38:49.059Z,21.67
2017-12-23T02:41:16.517Z,18.30
2017-12-23T02:43:43.970Z,20.00
2017-12-23T02:46:11.434Z,19.23
2017-12-23T02:48:38.891Z,18.40
2017-12-23T02:51:06.343Z,19.40
2017-12-23T02:53:33.842Z,19.63
2017-12-23T02:56:01.286Z,18.60
2017-12-23T02:58:28.748Z,19.70
2017-12-23T03:00:56.979Z,21.97
2017-12-23T03:03:24.443Z,22.27
2017-12-23T03:05:51.894Z,19.20
2017-12-23T03:08:19.366Z,22.80
2017-12-23T03:10:46.814Z,23.00
2017-12-23T03:13:14.272Z,25.13
2017-12-23T03:15:41.742Z,25.40
2017-12-23T03:18:09.966Z,25.27
2017-12-23T03:20:37.431Z,23.70
2017-12-23T03:23:04.909Z,28.90
2017-12-23T03:25:32.350Z,29.40
2017-12-23T03:28:00.578Z,30.07
2017-12-23T03:30:28.832Z,29.00
2017-12-23T03:32:56.286Z,29.83
2017-12-23T03:35:23.743Z,26.70
2017-12-23T03:37:51.215Z,27.90
2017-12-23T03:40:19.434Z,30.87
2017-12-23T03:42:46.890Z,31.10
2017-12-23T03:45:14.358Z,28.97
2017-12-23T03:47:41.815Z,32.87
2017-12-23T03:50:09.270Z,31.87
2017-12-23T03:52:36.744Z,30.97
2017-12-23T03:55:04.207Z,27.10
2017-12-23T03:57:31.666Z,29.13
2017-12-23T03:59:59.137Z,28.57
2017-12-23T04:02:27.351Z,29.00
2017-12-23T04:04:54.802Z,27.37
2017-12-23T04:07:22.274Z,24.67
2017-12-23T04:09:49.738Z,26.60
2017-12-23T04:12:17.189Z,26.53
2017-12-23T04:14:44.667Z,27.80
2017-12-23T04:17:12.118Z,27.00
2017-12-23T04:19:39.579Z,29.07
2017-12-23T04:22:07.048Z,29.33
2017-12-23T04:24:34.512Z,27.70
2017-12-23T04:27:02.733Z,24.37
2017-12-23T04:29:30.207Z,27.13
2017-12-23T04:31:57.658Z,26.50
2017-12-23T04:34:25.110Z,22.80
2017-12-23T04:36:52.576Z,21.17
2017-12-23T04:39:20.028Z,21.27
2017-12-23T04:41:47.483Z,22.00
2017-12-23T04:44:14.954Z,18.43
2017-12-23T04:46:42.415Z,20.57
2017-12-23T04:49:09.877Z,17.53
2017-12-23T04:51:37.334Z,18.97
2017-12-23T04:54:04.791Z,19.07
2017-12-23T04:56:32.244Z,16.93
2017-12-23T04:58:59.706Z,16.00
2017-12-23T05:01:27.935Z,18.10
2017-12-23T05:03:55.396Z,20.97
2017-12-23T05:06:22.864Z,20.30
2017-12-23T05:08:50.323Z,22.27
2017-12-23T05:11:17.778Z,21.40
2017-12-23T05:13:45.258Z,22.13
2017-12-23T05:16:12.710Z,21.90
2017-12-23T05:18:40.167Z,22.90
2017-12-23T05:21:08.435Z,27.67
2017-12-23T05:23:35.899Z,26.13
2017-12-23T05:26:03.367Z,28.67
2017-12-23T05:28:31.598Z,29.53
2017-12-23T05:30:59.059Z,25.90
2017-12-23T05:33:26.514Z,28.43
2017-12-23T05:35:53.987Z,29.97
2017-12-23T05:38:21.459Z,28.50
2017-12-23T05:40:48.933Z,30.40
2017-12-23T05:43:17.170Z,29.90
2017-12-23T05:45:44.635Z,30.07
2017-12-23T05:48:12.095Z,28.93
2017-12-23T05:50:39.562Z,29.40
2017-12-23T05:53:07.777Z,26.87
2017-12-23T05:55:35.247Z,25.00
2017-12-23T05:58:02.712Z,27.40
2017-12-23T06:00:30.170Z,22.97
2017-12-23T06:02:57.639Z,25.13
2017-12-23T06:05:25.102Z,27.83
2017-12-23T06:07:52.563Z,28.90
2017-12-23T06:10:20.019Z,29.07
2017-12-23T06:12:47.492Z,26.90
2017-12-23T06:15:15.710Z,28.37
2017-12-23T06:17:43.172Z,30.87
2017-12-23T06:20:10.639Z,28.07
2017-12-23T06:22:38.093Z,27.73
2017-12-23T06:25:05.568Z,26.60
2017-12-23T06:27:33.040Z,26.00
2017-12-23T06:30:00.493Z,28.73
2017-12-23T06:32:27.955Z,29.07
2017-12-23T06:34:55.463Z,29.03
2017-12-23T06:37:22.919Z,27.00
2017-12-23T06:39:50.378Z,27.33
2017-12-23T06:42:17.851Z,26.07
2017-12-23T06:44:45.304Z,27.53
2017-12-23T06:47:12.759Z,25.00
2017-12-23T06:49:40.230Z,23.23
2017-12-23T06:52:07.683Z,17.90
2017-12-23T06:54:35.907Z,21.97
2017-12-23T06:57:04.145Z,23.43
2017-12-23T06:59:31.589Z,18.03
2017-12-23T07:01:59.051Z,18.53
2017-12-23T07:04:26.527Z,20.30
2017-12-23T07:06:53.983Z,21.97
2017-12-23T07:09:21.439Z,17.63
2017-12-23T07:11:48.909Z,14.67
2017-12-23T07:14:17.134Z,15.40
2017-12-23T07:16:44.596Z,14.23
2017-12-23T07:19:12.071Z,16.33
2017-12-23T07:21:39.523Z,14.20
2017-12-23T07:24:06.974Z,14.90
2017-12-23T07:26:34.450Z,13.23
2017-12-23T07:29:01.955Z,15.07
2017-12-23T07:31:29.418Z,14.30
2017-12-23T07:33:56.878Z,14.60
2017-12-23T07:36:24.338Z,16.73
2017-12-23T07:38:51.801Z,17.90
2017-12-23T07:41:19.263Z,18.77
2017-12-23T07:43:47.495Z,18.10
2017-12-23T07:46:15.722Z,15.97
2017-12-23T07:48:43.200Z,14.40
2017-12-23T07:51:10.658Z,14.30
2017-12-23T07:53:38.118Z,13.80
2017-12-23T07:56:05.587Z,12.50
2017-12-23T07:58:33.802Z,13.30
2017-12-23T08:01:01.265Z,13.43
2017-12-23T08:03:28.740Z,13.30
2017-12-23T08:05:56.187Z,12.50
2017-12-23T08:08:23.646Z,11.63
2017-12-23T08:10:51.146Z,11.23
2017-12-23T08:13:19.368Z,10.63
2017-12-23T08:15:46.839Z,11.27
2017-12-23T08:18:14.296Z,8.63
2017-12-23T08:20:41.742Z,10.13
2017-12-23T08:23:09.203Z,10.80
2017-12-23T08:25:36.675Z,10.20
2017-12-23T08:28:04.135Z,10.60
2017-12-23T08:30:31.582Z,8.97
2017-12-23T08:32:59.055Z,9.93
2017-12-23T08:35:26.533Z,9.40
2017-12-23T08:37:53.982Z,10.03
2017-12-23T08:40:21.459Z,10.77
2017-12-23T08:42:49.687Z,10.60
2017-12-23T08:45:17.143Z,10.50
2017-12-23T08:47:44.618Z,8.97
2017-12-23T08:50:12.071Z,9.90
2017-12-23T08:52:39.536Z,9.40
2017-12-23T08:55:07.002Z,10.03
2017-12-23T08:57:35.219Z,9.40
2017-12-23T09:00:02.679Z,9.70
2017-12-23T09:02:30.166Z,9.30
2017-12-23T09:04:57.606Z,10.13
2017-12-23T09:07:25.057Z,10.00
2017-12-23T09:09:52.526Z,10.10
2017-12-23T09:12:19.995Z,8.77
2017-12-23T09:14:47.454Z,9.77
2017-12-23T09:17:14.910Z,8.83
2017-12-23T09:19:42.380Z,10.10
2017-12-23T09:22:09.839Z,9.73
2017-12-23T09:24:37.332Z,9.33
2017-12-23T09:27:04.778Z,10.40
2017-12-23T09:29:32.230Z,11.30
2017-12-23T09:32:00.531Z,10.37
2017-12-23T09:34:28.090Z,10.60
2017-12-23T09:36:55.595Z,10.80
2017-12-23T09:39:23.855Z,12.33
2017-12-23T09:41:51.310Z,11.17
2017-12-23T09:44:18.763Z,14.00
2017-12-23T09:46:46.239Z,13.03
2017-12-23T09:49:13.696Z,14.00
2017-12-23T09:51:41.158Z,15.53
2017-12-23T09:54:08.634Z,15.13
2017-12-23T09:56:36.855Z,14.93
2017-12-23T09:59:04.314Z,16.23
2017-12-23T10:01:31.783Z,18.00
2017-12-23T10:03:59.244Z,17.80
2017-12-23T10:06:26.694Z,18.80
2017-12-23T10:08:54.183Z,17.27
2017-12-23T10:11:22.407Z,19.53
2017-12-23T10:13:49.866Z,17.00
2017-12-23T10:16:17.334Z,17.53
2017-12-23T10:18:44.795Z,19.37
2017-12-23T10:21:12.251Z,20.17
2017-12-23T10:23:39.723Z,19.43
2017-12-23T10:26:07.179Z,19.30
2017-12-23T10:28:34.641Z,20.23
2017-12-23T10:31:02.108Z,20.20
2017-12-23T10:33:29.567Z,21.03
2017-12-23T10:35:57.790Z,17.93
2017-12-23T10:38:25.254Z,19.90
2017-12-23T10:40:52.702Z,17.90
2017-12-23T10:43:20.163Z,17.57
2017-12-23T10:45:47.640Z,14.90
2017-12-23T10:48:15.119Z,14.37
2017-12-23T10:50:42.574Z,16.40
2017-12-23T10:53:10.055Z,16.33
2017-12-23T10:55:38.284Z,15.13
2017-12-23T10:58:05.743Z,14.77
2017-12-23T11:00:33.210Z,14.03
2017-12-23T11:03:00.675Z,13.67
2017-12-23T11:05:28.131Z,13.23
2017-12-23T11:07:55.602Z,12.87
2017-12-23T11:10:23.823Z,13.40
2017-12-23T11:12:51.278Z,13.13
2017-12-23T11:15:18.759Z,12.63
2017-12-23T11:17:46.211Z,12.63
2017-12-23T11:20:13.675Z,11.63
2017-12-23T11:22:41.145Z,11.57
2017-12-23T11:25:08.603Z,11.67
2017-12-23T11:27:36.054Z,11.80
2017-12-23T11:30:03.530Z,12.57
2017-12-23T11:32:31.747Z,12.43
2017-12-23T11:34:59.203Z,11.13
2017-12-23T11:37:26.682Z,12.53
2017-12-23T11:39:54.144Z,11.60
2017-12-23T11:42:21.590Z,11.70
2017-12-23T11:44:49.061Z,12.03
2017-12-23T11:47:16.510Z,12.43
2017-12-23T11:49:43.967Z,10.03
2017-12-23T11:52:11.438Z,10.10
2017-12-23T11:54:38.902Z,9.57
2017-12-23T11:57:06.349Z,9.77
2017-12-23T11:59:33.818Z,9.50
2017-12-23T12:02:01.283Z,7.80
2017-12-23T12:04:29.524Z,7.80
2017-12-23T12:06:57.158Z,8.70
2017-12-23T12:09:24.611Z,8.00
2017-12-23T12:11:52.072Z,6.57
2017-12-23T12:14:19.547Z,5.83
2017-12-23T12:16:47.020Z,5.83
2017-12-23T12:19:14.467Z,6.10
2017-12-23T12:21:41.936Z,6.10
2017-12-23T12:24:09.393Z,6.70
2017-12-23T12:26:36.840Z,7.30
2017-12-23T12:29:04.300Z,6.20
2017-12-23T12:31:31.746Z,6.63
2017-12-23T12:33:59.202Z,7.40
2017-12-23T12:36:26.677Z,6.90
2017-12-23T12:38:54.157Z,5.97
2017-12-23T12:41:21.611Z,6.10
2017-12-23T12:43:49.846Z,6.30
2017-12-23T12:46:17.306Z,7.60
2017-12-23T12:48:44.764Z,7.03
2017-12-23T12:51:12.232Z,7.30
2017-12-23T12:53:39.683Z,6.73
2017-12-23T12:56:07.139Z,6.40
2017-12-23T12:58:34.606Z,8.33
2017-12-23T13:01:02.071Z,8.17
2017-12-23T13:03:29.519Z,8.60
2017-12-23T13:05:56.995Z,10.10
2017-12-23T13:08:25.219Z,9.80
2017-12-23T13:10:52.669Z,9.53
2017-12-23T13:13:20.148Z,10.33
2017-12-23T13:15:47.609Z,10.80
2017-12-23T13:18:15.062Z,10.57
2017-12-23T13:20:42.535Z,10.77
2017-12-23T13:23:09.999Z,12.27
2017-12-23T13:25:37.463Z,10.90
2017-12-23T13:28:05.701Z,13.10
2017-12-23T13:30:33.166Z,12.93
2017-12-23T13:33:00.622Z,12.90
2017-12-23T13:35:28.124Z,13.20
2017-12-23T13:37:56.350Z,13.70
2017-12-23T13:40:23.806Z,13.67
2017-12-23T13:42:51.282Z,14.60
2017-12-23T13:45:18.738Z,14.57
2017-12-23T13:47:46.195Z,12.27
2017-12-23T13:50:13.670Z,13.07
2017-12-23T13:52:41.899Z,13.83
2017-12-23T13:55:09.365Z,13.43
2017-12-23T13:57:36.826Z,12.60
2017-12-23T14:00:04.294Z,12.80
2017-12-23T14:02:31.737Z,12.17
2017-12-23T14:04:59.212Z,14.07
2017-12-23T14:07:26.662Z,13.10
2017-12-23T14:09:54.124Z,14.47
2017-12-23T14:12:21.587Z,15.43
2017-12-23T14:14:49.034Z,13.50
2017-12-23T14:17:16.499Z,13.60
2017-12-23T14:19:43.971Z,14.80
2017-12-23T14:22:12.197Z,14.20
2017-12-23T14:24:39.651Z,15.50
2017-12-23T14:27:07.127Z,16.10
2017-12-23T14:29:34.584Z,14.03
2017-12-23T14:32:02.044Z,13.63
2017-12-23T14:34:29.514Z,14.53
2017-12-23T14:36:56.972Z,16.47
2017-12-23T14:39:24.435Z,15.33
2017-12-23T14:41:52.683Z,16.17
2017-12-23T14:44:20.139Z,14.83
2017-12-23T14:46:47.599Z,16.67
2017-12-23T14:49:15.063Z,15.77
2017-12-23T14:51:42.519Z,16.30
2017-12-23T14:54:09.976Z,16.97
2017-12-23T14:56:37.449Z,16.40
2017-12-23T14:59:05.754Z,17.23
2017-12-23T15:01:33.222Z,18.03
2017-12-23T15:04:00.680Z,18.30
2017-12-23T15:06:28.155Z,17.40
2017-12-23T15:08:55.606Z,17.60
2017-12-23T15:11:23.083Z,17.20
2017-12-23T15:13:50.545Z,17.60
2017-12-23T15:16:18.006Z,16.90
2017-12-23T15:18:45.472Z,17.53
2017-12-23T15:21:12.927Z,17.13
2017-12-23T15:23:40.386Z,18.57
2017-12-23T15:26:07.860Z,17.97
2017-12-23T15:28:36.082Z,18.80
2017-12-23T15:31:03.543Z,19.73
2017-12-23T15:33:31.014Z,20.50
2017-12-23T15:35:58.458Z,17.83
2017-12-23T15:38:25.914Z,18.90
2017-12-23T15:40:53.396Z,19.50
2017-12-23T15:43:20.850Z,21.10
2017-12-23T15:45:48.310Z,19.53
2017-12-23T15:48:15.803Z,21.90
2017-12-23T15:50:43.258Z,20.00
2017-12-23T15:53:10.714Z,19.37
2017-12-23T15:55:38.188Z,19.77
2017-12-23T15:58:05.652Z,19.70
2017-12-23T16:00:33.106Z,20.30
2017-12-23T16:03:00.600Z,20.80
2017-12-23T16:05:28.058Z,22.00
2017-12-23T16:07:55.521Z,20.50
2017-12-23T16:10:22.988Z,19.70
2017-12-23T16:12:50.446Z,18.40
2017-12-23T16:15:18.666Z,20.43
2017-12-23T16:17:46.143Z,20.80
2017-12-23T16:20:13.611Z,17.73
2017-12-23T16:22:41.063Z,21.95
2017-12-23T16:25:08.543Z,20.70
2017-12-23T16:27:35.991Z,19.30
2017-12-23T16:30:03.442Z,20.90
2017-12-23T16:32:30.911Z,18.60
2017-12-23T16:34:58.371Z,20.07
2017-12-23T16:37:25.826Z,19.60
2017-12-23T16:39:53.286Z,21.90
2017-12-23T16:42:21.506Z,19.67
2017-12-23T16:44:48.975Z,21.00
2017-12-23T16:47:16.443Z,21.17
2017-12-23T16:49:43.905Z,19.93
2017-12-23T16:52:12.354Z,20.63
2017-12-23T16:54:39.831Z,20.23
2017-12-23T16:57:07.289Z,20.10
2017-12-23T16:59:34.778Z,23.00
2017-12-23T17:02:02.233Z,21.20
2017-12-23T17:04:29.700Z,22.33
2017-12-23T17:06:57.919Z,21.20
2017-12-23T17:09:25.398Z,20.60
2017-12-23T17:11:52.854Z,22.20
2017-12-23T17:14:20.305Z,21.00
2017-12-23T17:16:47.787Z,22.03
2017-12-23T17:19:15.238Z,22.87
2017-12-23T17:21:42.703Z,22.27
2017-12-23T17:24:10.184Z,23.00
2017-12-23T17:26:38.406Z,22.53
2017-12-23T17:29:17.770Z,22.23
2017-12-23T17:31:45.228Z,23.40
2017-12-23T17:34:12.683Z,22.43
2017-12-23T17:36:40.159Z,22.97
2017-12-23T17:39:08.378Z,23.00
2017-12-23T17:41:35.845Z,23.10
2017-12-23T17:44:03.303Z,24.53
2017-12-23T17:46:30.759Z,24.13
2017-12-23T17:48:58.223Z,26.70
2017-12-23T17:51:25.764Z,24.33
2017-12-23T17:53:53.224Z,24.40
2017-12-23T17:56:20.674Z,23.57
2017-12-23T17:58:48.150Z,25.00
2017-12-23T18:01:15.608Z,24.60
2017-12-23T18:03:43.068Z,24.77
2017-12-23T18:06:10.538Z,24.60
2017-12-23T18:08:37.994Z,23.27
2017-12-23T18:11:05.455Z,21.50
2017-12-23T18:13:32.915Z,24.77
2017-12-23T18:16:01.139Z,23.37
2017-12-23T18:18:28.597Z,22.43
2017-12-23T18:20:56.071Z,22.50
2017-12-23T18:23:23.586Z,23.83
2017-12-23T18:25:50.995Z,21.77
2017-12-23T18:28:18.469Z,21.80
2017-12-23T18:30:45.914Z,21.97
2017-12-23T18:33:13.372Z,23.40
2017-12-23T18:35:40.847Z,22.80
2017-12-23T18:38:09.058Z,20.77
2017-12-23T18:40:36.520Z,22.13
2017-12-23T18:43:03.987Z,21.17
2017-12-23T18:45:31.439Z,21.50
2017-12-23T18:47:58.908Z,19.57
2017-12-23T18:50:26.367Z,21.10
2017-12-23T18:52:53.828Z,20.10
2017-12-23T18:55:21.282Z,19.10
2017-12-23T18:57:48.767Z,18.20
2017-12-23T19:00:16.232Z,18.20
2017-12-23T19:02:44.450Z,19.00
2017-12-23T19:05:11.923Z,19.43
2017-12-23T19:07:39.384Z,20.30
2017-12-23T19:10:06.843Z,19.33
2017-12-23T19:12:34.322Z,20.60
2017-12-23T19:15:01.792Z,19.63
2017-12-23T19:17:29.246Z,19.97
2017-12-23T19:19:57.519Z,19.50
2017-12-23T19:22:24.975Z,20.70
2017-12-23T19:24:53.206Z,21.03
2017-12-23T19:27:20.672Z,23.63
2017-12-23T19:29:48.135Z,23.50
2017-12-23T19:32:15.595Z,21.10
2017-12-23T19:34:43.070Z,23.87
2017-12-23T19:37:10.529Z,22.37
2017-12-23T19:39:37.982Z,23.67
2017-12-23T19:42:05.451Z,22.90
2017-12-23T19:44:33.679Z,23.90
2017-12-23T19:47:01.131Z,22.77
2017-12-23T19:49:28.616Z,28.50
2017-12-23T19:51:56.072Z,25.23
2017-12-23T19:54:23.532Z,23.93
2017-12-23T19:56:50.997Z,25.17
2017-12-23T19:59:18.456Z,19.43
2017-12-23T20:01:45.911Z,22.47
2017-12-23T20:04:13.391Z,21.47
2017-12-23T20:06:41.620Z,21.00
2017-12-23T20:09:09.079Z,24.30
2017-12-23T20:11:36.576Z,23.73
2017-12-23T20:14:04.798Z,18.70
2017-12-23T20:16:33.047Z,21.63
2017-12-23T20:19:00.516Z,23.60
2017-12-23T20:21:27.976Z,21.07
2017-12-23T20:23:55.443Z,22.90
2017-12-23T20:26:22.911Z,21.63
2017-12-23T20:28:50.363Z,18.90
2017-12-23T20:31:17.828Z,19.37
2017-12-23T20:33:45.302Z,19.77
2017-12-23T20:36:12.754Z,18.80
2017-12-23T20:38:40.210Z,18.27
2017-12-23T20:41:07.691Z,17.03
2017-12-23T20:43:35.915Z,14.40
2017-12-23T20:46:03.373Z,16.60
2017-12-23T20:48:30.839Z,14.73
2017-12-23T20:50:58.296Z,14.13
2017-12-23T20:53:25.826Z,14.27
2017-12-23T20:55:53.287Z,15.90
2017-12-23T20:58:20.759Z,15.60
2017-12-23T21:00:48.222Z,14.43
2017-12-23T21:03:15.699Z,15.47
2017-12-23T21:05:43.157Z,14.53
2017-12-23T21:08:10.606Z,14.13
2017-12-23T21:10:38.079Z,11.90
2017-12-23T21:13:06.302Z,13.00
2017-12-23T21:15:33.783Z,11.13
2017-12-23T21:18:01.250Z,13.20
2017-12-23T21:20:28.712Z,12.13
2017-12-23T21:22:56.183Z,14.60
2017-12-23T21:25:23.642Z,14.87
2017-12-23T21:27:51.862Z,14.53
2017-12-23T21:30:19.318Z,14.87
2017-12-23T21:32:46.794Z,15.50
2017-12-23T21:35:14.261Z,16.07
2017-12-23T21:37:41.706Z,15.73
2017-12-23T21:40:09.184Z,16.23
2017-12-23T21:42:36.650Z,16.20
2017-12-23T21:45:04.116Z,18.30
2017-12-23T21:47:32.359Z,17.73
2017-12-23T21:49:59.806Z,19.40
2017-12-23T21:52:27.282Z,19.70
2017-12-23T21:54:54.749Z,18.90
2017-12-23T21:57:22.198Z,18.80
2017-12-23T21:59:49.664Z,18.03
2017-12-23T22:02:17.142Z,19.27
2017-12-23T22:04:45.354Z,20.90
2017-12-23T22:07:12.820Z,19.57
2017-12-23T22:09:40.288Z,21.90
2017-12-23T22:12:07.742Z,19.60
2017-12-23T22:14:35.206Z,21.67
2017-12-23T22:17:02.669Z,20.07
2017-12-23T22:19:30.122Z,21.80
2017-12-23T22:21:57.592Z,22.37
2017-12-23T22:24:25.063Z,23.60
2017-12-23T22:26:53.288Z,24.37
2017-12-23T22:29:20.746Z,23.80
2017-12-23T22:31:48.218Z,23.77
2017-12-23T22:34:15.665Z,24.27
2017-12-23T22:36:43.132Z,23.67
2017-12-23T22:39:10.612Z,24.40
2017-12-23T22:41:38.068Z,23.67
2017-12-23T22:44:06.306Z,23.00
2017-12-23T22:46:33.801Z,21.60
2017-12-23T22:49:01.257Z,22.13
2017-12-23T22:51:29.479Z,21.70
2017-12-23T22:53:56.951Z,21.67
2017-12-23T22:56:24.403Z,21.60
2017-12-23T22:58:51.850Z,22.27
2017-12-23T23:01:19.327Z,21.70
2017-12-23T23:03:46.783Z,21.30
2017-12-23T23:06:14.239Z,22.10
2017-12-23T23:08:41.715Z,21.57
2017-12-23T23:11:09.166Z,22.07
2017-12-23T23:13:36.622Z,22.33
2017-12-23T23:16:04.132Z,20.07
2017-12-23T23:18:31.554Z,22.07
2017-12-23T23:20:59.006Z,22.67
2017-12-23T23:23:26.474Z,21.33
2017-12-23T23:25:54.699Z,22.77
2017-12-23T23:28:22.924Z,23.13
2017-12-23T23:30:51.158Z,22.90
2017-12-23T23:33:18.622Z,23.87
2017-12-23T23:35:46.073Z,23.00
2017-12-23T23:38:13.574Z,23.40
2017-12-23T23:40:41.791Z,23.17
2017-12-23T23:43:09.247Z,24.77
2017-12-23T23:45:36.719Z,24.77
2017-12-23T23:48:04.167Z,24.13
2017-12-23T23:50:31.623Z,27.80
2017-12-23T23:52:59.863Z,26.97
2017-12-23T23:55:27.339Z,27.40
2017-12-23T23:57:54.799Z,25.87
